createdAt,value
2024-02-28T00:01:57.316Z,6.19
2024-02-28T00:06:57.255Z,6.13
2024-02-28T00:11:57.205Z,6.22
2024-02-28T00:16:57.092Z,6.30
2024-02-28T00:21:57.080Z,6.32
2024-02-28T00:26:56.984Z,6.38
2024-02-28T00:31:56.924Z,6.41
2024-02-28T00:36:57.124Z,6.47
2024-02-28T00:41:56.790Z,6.36
2024-02-28T00:46:56.790Z,6.36
2024-02-28T00:51:56.775Z,6.46
2024-02-28T00:56:56.570Z,6.51
2024-02-28T01:01:56.538Z,6.53
2024-02-28T01:06:56.500Z,6.54
2024-02-28T01:11:56.435Z,6.56
2024-02-28T01:16:56.418Z,6.59
2024-02-28T01:21:56.341Z,6.56
2024-02-28T01:26:56.243Z,6.56
2024-02-28T01:31:56.142Z,6.43
2024-02-28T01:36:56.198Z,6.28
2024-02-28T01:41:56.023Z,6.26
2024-02-28T01:46:56.051Z,6.21
2024-02-28T01:51:56.026Z,6.33
2024-02-28T01:56:55.798Z,6.25
2024-02-28T02:01:55.761Z,6.28
2024-02-28T02:06:55.836Z,6.28
2024-02-28T02:11:55.624Z,6.14
2024-02-28T02:16:55.578Z,6.16
2024-02-28T02:21:55.578Z,6.28
2024-02-28T02:26:55.461Z,6.22
2024-02-28T02:31:55.358Z,6.22
2024-02-28T02:36:55.319Z,6.19
2024-02-28T02:41:55.378Z,6.26
2024-02-28T02:46:55.162Z,6.19
2024-02-28T02:51:55.128Z,6.11
2024-02-28T02:56:55.008Z,6.14
2024-02-28T03:01:55.072Z,6.10
2024-02-28T03:06:54.921Z,6.13
2024-02-28T03:11:54.848Z,6.01
2024-02-28T03:16:54.788Z,6.14
2024-02-28T03:21:54.826Z,6.14
2024-02-28T03:26:54.634Z,6.06
2024-02-28T03:31:54.583Z,5.93
2024-02-28T03:36:54.641Z,5.88
2024-02-28T03:41:54.478Z,5.88
2024-02-28T03:46:54.351Z,5.92
2024-02-28T03:51:54.382Z,5.91
2024-02-28T03:56:54.249Z,5.82
2024-02-28T04:01:54.177Z,5.74
2024-02-28T04:06:54.178Z,5.70
2024-02-28T04:11:54.089Z,5.63
2024-02-28T04:16:54.035Z,5.64
2024-02-28T04:21:53.986Z,5.68
2024-02-28T04:26:53.794Z,5.71
2024-02-28T04:31:53.799Z,5.63
2024-02-28T04:36:53.921Z,5.60
2024-02-28T04:41:53.651Z,5.56
2024-02-28T04:46:53.586Z,5.55
2024-02-28T04:51:53.599Z,5.64
2024-02-28T04:56:53.487Z,5.59
2024-02-28T05:01:53.479Z,5.70
2024-02-28T05:06:53.365Z,5.56
2024-02-28T05:11:53.350Z,5.53
2024-02-28T05:16:53.245Z,5.56
2024-02-28T05:21:53.182Z,5.45
2024-02-28T05:26:53.054Z,5.38
2024-02-28T05:31:53.079Z,5.53
2024-02-28T05:36:52.965Z,5.45
2024-02-28T05:41:52.872Z,5.43
2024-02-28T05:46:52.783Z,5.32
2024-02-28T05:51:52.829Z,5.40
2024-02-28T05:56:52.697Z,5.49
2024-02-28T06:01:52.647Z,5.45
2024-02-28T06:06:52.579Z,5.53
2024-02-28T06:11:52.510Z,5.45
2024-02-28T06:16:52.411Z,5.45
2024-02-28T06:21:52.662Z,5.55
2024-02-28T06:26:52.274Z,5.46
2024-02-28T06:31:52.209Z,5.45
2024-02-28T06:36:52.243Z,5.45
2024-02-28T06:41:52.205Z,5.50
2024-02-28T06:46:51.996Z,5.68
2024-02-28T06:51:51.980Z,5.68
2024-02-28T06:56:51.847Z,5.71
2024-02-28T07:01:51.972Z,5.49
2024-02-28T07:06:51.927Z,5.37
2024-02-28T07:11:51.690Z,5.34
2024-02-28T07:16:51.605Z,5.28
2024-02-28T07:21:51.598Z,5.28
2024-02-28T07:26:51.469Z,5.14
2024-02-28T07:31:51.413Z,5.17
2024-02-28T07:36:51.424Z,5.16
2024-02-28T07:41:53.214Z,5.19
2024-02-28T07:46:51.249Z,5.25
2024-02-28T07:51:51.505Z,5.30
2024-02-28T07:56:51.066Z,5.40
2024-02-28T08:01:51.084Z,5.56
2024-02-28T08:06:50.984Z,5.63
2024-02-28T08:11:50.878Z,5.85
2024-02-28T08:16:50.802Z,5.88
2024-02-28T08:21:50.799Z,5.73
2024-02-28T08:26:50.673Z,5.68
2024-02-28T08:31:50.627Z,5.64
2024-02-28T08:36:50.570Z,5.41
2024-02-28T08:41:50.529Z,5.46
2024-02-28T08:46:50.438Z,5.37
2024-02-28T08:51:50.584Z,5.38
2024-02-28T08:56:56.585Z,5.32
2024-02-28T09:01:51.323Z,5.35
2024-02-28T09:06:50.246Z,5.56
2024-02-28T09:11:50.453Z,5.75
2024-02-28T09:16:50.056Z,6.11
2024-02-28T09:21:50.034Z,6.33
2024-02-28T09:26:49.891Z,6.13
2024-02-28T09:31:49.862Z,6.32
2024-02-28T09:36:51.274Z,6.30
2024-02-28T09:41:49.755Z,6.36
2024-02-28T09:46:49.604Z,6.36
2024-02-28T09:51:49.587Z,6.51
2024-02-28T09:56:49.513Z,6.36
2024-02-28T10:01:49.466Z,6.43
2024-02-28T10:06:49.385Z,6.26
2024-02-28T10:11:49.336Z,6.36
2024-02-28T10:16:49.218Z,6.40
2024-02-28T10:21:49.204Z,6.63
2024-02-28T10:26:49.133Z,6.35
2024-02-28T10:31:49.047Z,6.44
2024-02-28T10:36:49.113Z,6.32
2024-02-28T10:41:48.909Z,6.19
2024-02-28T10:46:48.931Z,6.25
2024-02-28T10:51:48.845Z,6.19
2024-02-28T10:56:48.743Z,6.03
2024-02-28T11:01:48.750Z,5.93
2024-02-28T11:06:48.573Z,6.04
2024-02-28T11:11:48.529Z,5.92
2024-02-28T11:16:48.485Z,6.03
2024-02-28T11:21:48.410Z,6.43
2024-02-28T11:26:50.097Z,6.51
2024-02-28T11:31:48.237Z,6.54
2024-02-28T11:36:48.332Z,6.86
2024-02-28T11:41:48.129Z,7.24
2024-02-28T11:46:48.079Z,7.26
2024-02-28T11:51:48.267Z,7.23
2024-02-28T11:56:48.017Z,6.99
2024-02-28T12:01:48.144Z,6.79
2024-02-28T12:06:47.922Z,6.91
2024-02-28T12:11:47.690Z,6.80
2024-02-28T12:16:47.677Z,6.53
2024-02-28T12:21:47.600Z,6.43
2024-02-28T12:26:47.529Z,6.54
2024-02-28T12:31:47.470Z,6.36
2024-02-28T12:36:47.789Z,6.47
2024-02-28T12:41:47.321Z,6.59
2024-02-28T12:46:47.270Z,6.71
2024-02-28T12:51:47.369Z,6.63
2024-02-28T12:56:47.165Z,6.84
2024-02-28T13:01:47.211Z,6.72
2024-02-28T13:06:47.070Z,7.02
2024-02-28T13:11:46.989Z,7.08
2024-02-28T13:16:46.930Z,6.89
2024-02-28T13:21:46.848Z,6.87
2024-02-28T13:26:46.736Z,6.81
2024-02-28T13:31:46.701Z,6.95
2024-02-28T13:36:46.722Z,6.90
2024-02-28T13:41:46.546Z,7.13
2024-02-28T13:46:46.606Z,7.38
2024-02-28T13:51:48.522Z,7.42
2024-02-28T13:56:46.372Z,7.49
2024-02-28T14:01:46.497Z,7.58
2024-02-28T14:06:46.303Z,7.71
2024-02-28T14:11:46.161Z,7.52
2024-02-28T14:16:46.177Z,7.04
2024-02-28T14:21:46.117Z,6.91
2024-02-28T14:26:45.966Z,6.86
2024-02-28T14:31:45.899Z,6.73
2024-02-28T14:36:45.867Z,6.61
2024-02-28T14:41:45.769Z,6.61
2024-02-28T14:46:45.732Z,6.81
2024-02-28T14:51:45.618Z,6.69
2024-02-28T14:56:45.574Z,6.46
2024-02-28T15:01:45.558Z,6.30
2024-02-28T15:06:45.515Z,6.28
2024-02-28T15:11:45.342Z,6.14
2024-02-28T15:16:45.323Z,6.16
2024-02-28T15:21:45.281Z,6.28
2024-02-28T15:26:47.068Z,6.18
2024-02-28T15:31:45.107Z,6.19
2024-02-28T15:36:45.052Z,6.28
2024-02-28T15:41:44.941Z,6.22
2024-02-28T15:46:44.944Z,6.18
2024-02-28T15:51:44.838Z,6.10
2024-02-28T15:56:44.730Z,6.07
2024-02-28T16:01:44.685Z,6.03
2024-02-28T16:06:44.657Z,5.95
2024-02-28T16:11:44.580Z,5.91
2024-02-28T16:16:44.508Z,5.77
2024-02-28T16:21:44.503Z,5.49
2024-02-28T16:26:44.398Z,5.38
2024-02-28T16:31:44.308Z,5.35
2024-02-28T16:36:44.272Z,5.30
2024-02-28T16:41:44.178Z,5.14
2024-02-28T16:46:44.145Z,4.95
2024-02-28T16:51:44.080Z,4.73
2024-02-28T16:56:43.998Z,4.57
2024-02-28T17:01:44.023Z,4.32
2024-02-28T17:06:43.957Z,4.26
2024-02-28T17:11:43.817Z,4.10
2024-02-28T17:16:43.734Z,4.14
2024-02-28T17:21:43.761Z,4.00
2024-02-28T17:26:43.599Z,3.83
2024-02-28T17:31:43.516Z,3.67
2024-02-28T17:36:43.514Z,3.39
2024-02-28T17:41:43.452Z,3.39
2024-02-28T17:46:43.349Z,3.57
2024-02-28T17:51:43.306Z,3.44
2024-02-28T17:56:43.290Z,3.27
2024-02-28T18:01:43.279Z,3.23
2024-02-28T18:06:43.103Z,3.12
2024-02-28T18:11:43.097Z,3.13
2024-02-28T18:16:42.960Z,3.10
2024-02-28T18:21:42.918Z,2.95
2024-02-28T18:26:42.802Z,2.67
2024-02-28T18:31:42.739Z,2.66
2024-02-28T18:36:42.746Z,2.55
2024-02-28T18:41:42.650Z,2.51
2024-02-28T18:46:42.554Z,2.44
2024-02-28T18:51:42.566Z,2.40
2024-02-28T18:56:42.457Z,2.41
2024-02-28T19:01:42.559Z,2.23
2024-02-28T19:06:42.332Z,2.16
2024-02-28T19:11:42.224Z,2.02
2024-02-28T19:16:42.158Z,1.90
2024-02-28T19:21:42.140Z,1.85
2024-02-28T19:26:42.055Z,1.76
2024-02-28T19:31:41.978Z,1.80
2024-02-28T19:36:41.947Z,1.72
2024-02-28T19:41:41.855Z,1.71
2024-02-28T19:46:41.759Z,1.57
2024-02-28T19:51:41.737Z,1.51
2024-02-28T19:56:41.674Z,1.51
2024-02-28T20:01:41.736Z,1.37
2024-02-28T20:06:41.607Z,1.34
2024-02-28T20:11:41.474Z,1.37
2024-02-28T20:16:41.552Z,1.36
2024-02-28T20:21:41.374Z,1.40
2024-02-28T20:26:41.265Z,1.26
2024-02-28T20:31:41.207Z,1.07
2024-02-28T20:36:41.211Z,1.16
2024-02-28T20:41:41.070Z,1.16
2024-02-28T20:46:41.001Z,1.08
2024-02-28T20:51:41.033Z,0.86
2024-02-28T20:56:40.865Z,0.85
2024-02-28T21:01:41.031Z,0.86
2024-02-28T21:06:40.764Z,0.82
2024-02-28T21:11:40.768Z,0.70
2024-02-28T21:16:40.621Z,0.92
2024-02-28T21:21:40.612Z,0.79
2024-02-28T21:26:40.502Z,0.79
2024-02-28T21:31:40.445Z,1.01
2024-02-28T21:36:40.435Z,0.78
2024-02-28T21:41:40.337Z,0.78
2024-02-28T21:46:40.228Z,0.67
2024-02-28T21:51:40.275Z,0.70
2024-02-28T21:56:40.113Z,0.60
2024-02-28T22:01:40.139Z,0.72
2024-02-28T22:06:40.050Z,0.72
2024-02-28T22:11:39.941Z,0.71
2024-02-28T22:16:39.852Z,0.71
2024-02-28T22:21:39.858Z,0.71
2024-02-28T22:26:39.778Z,0.75
2024-02-28T22:31:39.678Z,0.90
2024-02-28T22:36:39.628Z,1.00
2024-02-28T22:41:39.523Z,1.03
2024-02-28T22:46:39.556Z,1.10
2024-02-28T22:51:39.482Z,1.22
2024-02-28T22:56:39.315Z,1.29
2024-02-28T23:01:39.384Z,1.34
2024-02-28T23:06:39.273Z,1.34
2024-02-28T23:11:39.131Z,1.36
2024-02-28T23:16:39.059Z,1.34
2024-02-28T23:21:39.271Z,1.44
2024-02-28T23:26:38.959Z,1.39
2024-02-28T23:31:38.909Z,1.43
2024-02-28T23:36:38.894Z,1.39
2024-02-28T23:41:38.747Z,1.43
2024-02-28T23:46:38.750Z,1.46
2024-02-28T23:51:38.742Z,1.44
2024-02-28T23:56:38.625Z,1.44
